Time;durP1;ratioP1;P1;durP2;ratioP2;P2;SDS_P1;SDS_P2;PMS_P1;PMS_P2;Temp;Humidity;BMP_temperature;BMP_pressure;BME280_temperature;BME280_humidity;BME280_pressure;Samples;Min_cycle;Max_cycle;Signal;HPM_P1;HPM_P2
2023/11/09 00:01:19;;;;;;;36.78;22.02;;;179.30;2252.80;;;;;;5040693;28;20112;-66
2023/11/09 00:03:44;;;;;;;70.03;34.92;;;179.30;2252.80;;;;;;5031478;28;20039;-63
2023/11/09 00:06:10;;;;;;;76.43;41.03;;;179.30;2252.80;;;;;;5032161;28;20029;-64
2023/11/09 00:08:37;;;;;;;61.83;31.33;;;179.30;2252.80;;;;;;5032013;28;20022;-66
2023/11/09 00:11:03;;;;;;;51.28;25.42;;;179.30;2252.80;;;;;;5032518;28;20471;-66
2023/11/09 00:13:29;;;;;;;38.72;24.02;;;179.20;2252.80;;;;;;5042984;28;20025;-63
2023/11/09 00:15:55;;;;;;;55.72;28.98;;;179.20;2252.80;;;;;;5040104;28;20040;-66
2023/11/09 00:18:21;;;;;;;56.83;30.90;;;179.20;2252.80;;;;;;5045851;28;20478;-65
2023/11/09 00:20:54;;;;;;;63.05;34.80;;;179.20;2252.80;;;;;;5043741;28;20045;-66
2023/11/09 00:23:20;;;;;;;57.72;31.98;;;154.50;2252.80;;;;;;5040225;28;20045;-67
2023/11/09 00:25:48;;;;;;;55.05;26.67;;;179.20;2252.80;;;;;;5044582;28;20041;-66
2023/11/09 00:28:15;;;;;;;33.08;20.00;;;154.50;2252.80;;;;;;5039485;28;20345;-66
2023/11/09 00:30:43;;;;;;;53.72;27.98;;;179.20;2252.80;;;;;;5049975;28;20538;-65
2023/11/09 00:33:09;;;;;;;38.35;23.23;;;179.20;2252.80;;;;;;5049705;28;20032;-64
2023/11/09 00:35:35;;;;;;;51.70;24.45;;;179.20;2252.80;;;;;;5050143;28;20439;-65
2023/11/09 00:38:04;;;;;;;32.25;16.65;;;179.20;2252.80;;;;;;5049510;28;20029;-66
2023/11/09 00:40:30;;;;;;;18.50;11.23;;;179.20;2252.80;;;;;;5049677;28;20025;-64
2023/11/09 00:42:56;;;;;;;16.65;10.25;;;154.50;2252.80;;;;;;5050174;28;20074;-63
2023/11/09 00:45:22;;;;;;;24.27;14.02;;;154.50;2252.80;;;;;;5040360;28;20079;-64
2023/11/09 00:47:48;;;;;;;29.67;17.30;;;154.50;2252.80;;;;;;5045239;28;20034;-63
2023/11/09 00:50:16;;;;;;;29.05;14.25;;;154.40;2252.80;;;;;;5049826;28;20025;-66
2023/11/09 00:52:42;;;;;;;29.45;17.20;;;154.40;2252.80;;;;;;5048894;28;20017;-64
2023/11/09 00:55:08;;;;;;;27.85;16.50;;;154.40;2252.80;;;;;;5049997;28;20031;-64
2023/11/09 00:57:34;;;;;;;32.33;17.85;;;154.50;2252.80;;;;;;5049076;28;20041;-63
2023/11/09 01:00:02;;;;;;;37.28;19.60;;;154.40;2252.80;;;;;;5049480;28;20029;-64
2023/11/09 01:02:33;;;;;;;31.27;18.52;;;154.40;2252.80;;;;;;5049306;28;20070;-64
2023/11/09 01:04:59;;;;;;;35.05;20.45;;;154.30;2252.80;;;;;;5048973;28;20079;-63
2023/11/09 01:07:25;;;;;;;38.83;21.42;;;154.40;2252.80;;;;;;5049223;28;20422;-65
2023/11/09 01:09:51;;;;;;;33.05;19.73;;;154.30;2252.80;;;;;;5049327;28;20060;-63
2023/11/09 01:12:17;;;;;;;23.77;14.65;;;154.30;2252.80;;;;;;5048833;28;20017;-65
2023/11/09 01:14:43;;;;;;;29.30;14.38;;;154.30;2252.80;;;;;;5049361;28;20036;-63
2023/11/09 01:17:11;;;;;;;17.33;11.32;;;154.30;2252.80;;;;;;5049036;28;20035;-63
2023/11/09 01:19:36;;;;;;;17.98;10.85;;;154.30;2252.80;;;;;;5049100;28;20032;-64
2023/11/09 01:22:02;;;;;;;18.95;11.20;;;154.20;2252.80;;;;;;5048159;28;20098;-66
2023/11/09 01:24:28;;;;;;;23.50;12.48;;;154.20;2252.80;;;;;;5049240;28;20052;-64
2023/11/09 01:26:54;;;;;;;13.85;8.75;;;154.20;2252.80;;;;;;5048908;28;20029;-63
2023/11/09 01:29:21;;;;;;;15.20;9.07;;;154.20;2252.80;;;;;;5049022;28;20025;-62
2023/11/09 01:31:48;;;;;;;22.05;12.45;;;154.10;2252.80;;;;;;5035489;28;20056;-65
2023/11/09 01:34:14;;;;;;;25.52;14.38;;;154.10;2252.80;;;;;;5049333;28;20044;-64
2023/11/09 01:36:40;;;;;;;61.40;32.22;;;154.10;2252.80;;;;;;5035021;28;20037;-67
2023/11/09 01:39:05;;;;;;;104.50;56.85;;;154.10;2252.80;;;;;;5048926;28;20383;-65
2023/11/09 01:41:31;;;;;;;94.60;48.78;;;154.10;2252.80;;;;;;5048837;28;20021;-66
2023/11/09 01:43:59;;;;;;;31.58;20.23;;;154.10;2252.80;;;;;;5049320;28;20107;-65
2023/11/09 01:46:26;;;;;;;21.48;16.10;;;154.10;2252.80;;;;;;5049503;28;20121;-64
2023/11/09 01:48:52;;;;;;;17.65;10.98;;;154.00;2252.80;;;;;;5048992;28;20037;-64
2023/11/09 01:51:20;;;;;;;16.70;11.98;;;154.00;2252.80;;;;;;5048383;28;21482;-66
2023/11/09 01:53:46;;;;;;;25.65;16.75;;;154.10;2252.80;;;;;;5049048;28;20051;-64
2023/11/09 01:56:14;;;;;;;45.67;26.00;;;154.10;2252.80;;;;;;5045860;28;20049;-63
2023/11/09 01:58:45;;;;;;;21.63;13.32;;;154.00;2252.80;;;;;;5038916;28;20036;-65
2023/11/09 02:01:13;;;;;;;17.00;10.80;;;154.10;2252.80;;;;;;5048126;28;20021;-64
2023/11/09 02:03:43;;;;;;;16.20;8.52;;;154.10;2252.80;;;;;;5049589;28;20025;-63
2023/11/09 02:06:10;;;;;;;12.48;8.68;;;154.00;2252.80;;;;;;5052405;28;20017;-64
2023/11/09 02:08:39;;;;;;;11.00;4.90;;;153.90;2252.80;;;;;;5052950;28;20526;-63
2023/11/09 02:11:05;;;;;;;7.78;5.22;;;153.80;2252.80;;;;;;5052618;28;20029;-64
2023/11/09 02:13:34;;;;;;;9.43;5.70;;;153.70;2252.80;;;;;;5052744;28;20071;-65
2023/11/09 02:16:01;;;;;;;9.23;5.32;;;153.70;2252.80;;;;;;5052895;28;20036;-63
2023/11/09 02:18:28;;;;;;;7.90;5.13;;;153.70;2252.80;;;;;;5052689;28;20087;-66
2023/11/09 02:20:54;;;;;;;9.50;6.35;;;153.70;2252.80;;;;;;5051998;28;20536;-63
2023/11/09 02:23:26;;;;;;;14.38;8.30;;;153.70;2252.80;;;;;;5052803;28;20028;-63
2023/11/09 02:25:53;;;;;;;10.00;8.05;;;153.70;2252.80;;;;;;5026796;28;20115;-63
2023/11/09 02:28:19;;;;;;;10.25;6.22;;;153.70;2252.80;;;;;;5052621;28;20025;-66
2023/11/09 02:30:45;;;;;;;7.18;5.20;;;128.90;2252.80;;;;;;5052288;28;20041;-64
2023/11/09 02:33:11;;;;;;;8.00;5.43;;;128.90;2252.80;;;;;;5038845;28;20433;-63
2023/11/09 02:35:38;;;;;;;7.47;5.20;;;128.90;2252.80;;;;;;5052090;28;20029;-64
2023/11/09 02:38:04;;;;;;;11.23;6.03;;;128.90;2252.80;;;;;;5051915;28;20041;-64
2023/11/09 02:40:30;;;;;;;20.40;11.48;;;128.80;2252.80;;;;;;5051895;28;20032;-63
2023/11/09 02:42:56;;;;;;;27.95;13.35;;;128.90;2252.80;;;;;;5052225;28;20025;-63
2023/11/09 02:45:22;;;;;;;14.48;8.57;;;128.80;2252.80;;;;;;5052482;28;20025;-66
2023/11/09 02:47:47;;;;;;;14.00;7.85;;;128.80;2252.80;;;;;;5052403;28;20036;-66
2023/11/09 02:50:14;;;;;;;14.10;7.80;;;128.80;2252.80;;;;;;5051632;28;20056;-64
2023/11/09 02:52:41;;;;;;;12.77;6.75;;;128.80;2252.80;;;;;;5051854;28;20102;-64
2023/11/09 02:55:08;;;;;;;20.35;12.73;;;128.80;2252.80;;;;;;5044291;28;20025;-66
2023/11/09 02:57:34;;;;;;;23.75;16.30;;;128.80;2252.80;;;;;;5046090;28;20037;-66
2023/11/09 03:00:00;;;;;;;12.27;8.02;;;128.80;2252.80;;;;;;5051915;28;20040;-63
2023/11/09 03:02:27;;;;;;;16.98;8.60;;;128.70;2252.80;;;;;;5051951;28;20041;-63
2023/11/09 03:04:53;;;;;;;14.32;8.13;;;128.70;2252.80;;;;;;5051245;28;20424;-66
2023/11/09 03:07:19;;;;;;;13.20;7.65;;;128.80;2252.80;;;;;;5051488;28;20067;-67
2023/11/09 03:09:44;;;;;;;14.38;8.75;;;128.70;2252.80;;;;;;5051549;28;20043;-63
2023/11/09 03:12:11;;;;;;;10.90;6.65;;;128.80;2252.80;;;;;;5051123;28;20029;-63
2023/11/09 03:14:36;;;;;;;11.38;7.22;;;128.60;2252.80;;;;;;5043787;28;20026;-66
2023/11/09 03:17:07;;;;;;;12.18;6.55;;;128.60;2252.80;;;;;;5045183;28;20037;-63
2023/11/09 03:19:35;;;;;;;12.02;7.20;;;128.60;2252.80;;;;;;5051610;28;20352;-67
2023/11/09 03:22:02;;;;;;;11.90;7.55;;;128.50;2252.80;;;;;;5050580;28;20049;-64
2023/11/09 03:24:29;;;;;;;19.95;10.82;;;128.60;2252.80;;;;;;5051398;28;20459;-64
2023/11/09 03:26:56;;;;;;;15.20;9.63;;;128.60;2252.80;;;;;;5051288;28;20029;-66
2023/11/09 03:29:23;;;;;;;14.57;9.70;;;128.60;2252.80;;;;;;5051016;28;20029;-65
2023/11/09 03:31:48;;;;;;;15.02;9.18;;;128.60;2252.80;;;;;;5050912;28;20027;-64
2023/11/09 03:34:14;;;;;;;55.13;35.10;;;128.60;2252.80;;;;;;5050816;28;20029;-63
2023/11/09 03:36:40;;;;;;;15.95;10.05;;;128.50;2252.80;;;;;;5050661;28;20025;-64
2023/11/09 03:39:05;;;;;;;9.40;6.63;;;128.50;2252.80;;;;;;5051056;28;20538;-63
2023/11/09 03:41:31;;;;;;;11.30;6.78;;;128.60;2252.80;;;;;;5050897;28;20020;-63
2023/11/09 03:43:57;;;;;;;18.33;9.95;;;128.60;2252.80;;;;;;5050733;28;20032;-64
2023/11/09 03:46:23;;;;;;;17.35;12.10;;;128.60;2252.80;;;;;;5050978;28;20021;-64
2023/11/09 03:48:49;;;;;;;18.63;11.48;;;128.60;2252.80;;;;;;5050979;28;20025;-66
2023/11/09 03:51:15;;;;;;;15.20;9.60;;;128.50;2252.80;;;;;;5050454;28;20067;-64
2023/11/09 03:53:41;;;;;;;11.63;7.95;;;128.50;2252.80;;;;;;5049571;28;20041;-66
2023/11/09 03:56:07;;;;;;;11.57;6.75;;;128.50;2252.80;;;;;;5050913;28;20037;-65
2023/11/09 03:58:36;;;;;;;11.70;6.93;;;128.40;2252.80;;;;;;5051193;28;20533;-66
2023/11/09 04:01:02;;;;;;;9.00;6.65;;;128.40;2252.80;;;;;;5050355;28;20433;-66
2023/11/09 04:03:28;;;;;;;9.98;6.85;;;128.30;2252.80;;;;;;5050585;28;20021;-66
2023/11/09 04:05:54;;;;;;;10.25;5.75;;;128.30;2252.80;;;;;;5050520;28;20546;-64
2023/11/09 04:08:19;;;;;;;8.77;5.25;;;128.40;2252.80;;;;;;5050674;28;20033;-66
2023/11/09 04:10:48;;;;;;;8.10;5.53;;;128.20;2252.80;;;;;;5050005;28;20100;-63
2023/11/09 04:13:14;;;;;;;6.70;4.75;;;128.30;2252.80;;;;;;5051208;28;20084;-64
2023/11/09 04:15:42;;;;;;;8.93;4.15;;;128.20;2252.80;;;;;;5050244;28;20473;-66
2023/11/09 04:18:08;;;;;;;8.02;4.43;;;128.30;2252.80;;;;;;5050650;28;20376;-66
2023/11/09 04:20:33;;;;;;;7.07;4.40;;;128.30;2252.80;;;;;;5049825;28;20028;-63
2023/11/09 04:22:59;;;;;;;9.70;4.95;;;128.30;2252.80;;;;;;5039829;28;20037;-64
2023/11/09 04:25:25;;;;;;;6.80;4.95;;;128.30;2252.80;;;;;;5042394;28;20033;-63
2023/11/09 04:27:51;;;;;;;9.10;4.10;;;128.00;2252.80;;;;;;5040056;28;20064;-63
2023/11/09 04:30:20;;;;;;;10.40;4.93;;;128.10;2252.80;;;;;;5049380;28;20029;-63
2023/11/09 04:32:46;;;;;;;13.40;5.47;;;128.10;2252.80;;;;;;5050454;28;20029;-65
2023/11/09 04:35:12;;;;;;;12.90;5.13;;;128.10;2252.80;;;;;;5049662;28;20391;-64
2023/11/09 04:37:38;;;;;;;9.63;5.90;;;103.30;2227.20;;;;;;5049969;28;20047;-63
2023/11/09 04:40:15;;;;;;;10.55;6.05;;;103.30;2227.20;;;;;;5049670;28;20021;-64
2023/11/09 04:42:47;;;;;;;12.40;6.72;;;128.00;2252.80;;;;;;5049825;28;20036;-64
2023/11/09 04:45:13;;;;;;;17.85;8.82;;;128.00;2252.80;;;;;;5049333;28;20021;-63
2023/11/09 04:47:41;;;;;;;16.17;6.40;;;103.30;2227.20;;;;;;5049793;28;20028;-63
2023/11/09 04:50:14;;;;;;;13.25;6.72;;;103.30;2227.20;;;;;;5049128;28;20502;-63
2023/11/09 04:52:56;;;;;;;11.23;6.07;;;103.30;2227.20;;;;;;5049245;28;20052;-64
2023/11/09 04:55:31;;;;;;;10.18;5.47;;;103.30;2227.20;;;;;;5049869;28;20017;-64
2023/11/09 05:08:53;;;;;;;12.15;8.02;;;103.10;2227.20;;;;;;5048739;28;20379;-67
2023/11/09 05:11:19;;;;;;;15.45;7.82;;;103.10;2227.20;;;;;;5037401;28;20021;-63
2023/11/09 05:13:45;;;;;;;16.08;12.23;;;103.00;2227.20;;;;;;5049284;28;20134;-66
2023/11/09 05:16:10;;;;;;;11.15;7.60;;;102.90;2227.20;;;;;;5029852;28;20491;-64
2023/11/09 05:18:38;;;;;;;10.02;7.57;;;103.00;2227.20;;;;;;5042748;28;20464;-65
2023/11/09 05:21:04;;;;;;;10.70;7.47;;;103.10;2227.20;;;;;;5042730;28;20110;-65
2023/11/09 05:23:30;;;;;;;10.30;7.28;;;103.20;2227.20;;;;;;5015550;28;20025;-64
2023/11/09 05:25:55;;;;;;;10.98;7.07;;;103.20;2227.20;;;;;;5029941;28;20591;-66
2023/11/09 05:28:22;;;;;;;13.52;8.15;;;103.20;2227.20;;;;;;5042795;28;20380;-63
2023/11/09 05:30:50;;;;;;;10.30;7.05;;;103.30;2227.20;;;;;;5042201;28;20032;-66
2023/11/09 05:33:18;;;;;;;15.07;9.23;;;103.30;2227.20;;;;;;5042798;28;20065;-62
2023/11/09 05:35:44;;;;;;;74.20;40.30;;;103.30;2227.20;;;;;;5036798;28;20029;-68
2023/11/09 05:38:10;;;;;;;18.27;11.82;;;103.30;2227.20;;;;;;5036850;28;20041;-65
2023/11/09 05:40:36;;;;;;;16.98;11.10;;;103.30;2227.20;;;;;;5036562;28;20025;-65
2023/11/09 05:43:02;;;;;;;18.42;10.05;;;103.30;2227.20;;;;;;5042910;28;20527;-66
2023/11/09 05:45:28;;;;;;;12.73;8.40;;;128.00;2252.80;;;;;;5049246;28;20108;-63
2023/11/09 05:47:53;;;;;;;27.58;16.38;;;103.30;2227.20;;;;;;5049051;28;20031;-63
2023/11/09 05:50:19;;;;;;;21.67;13.95;;;128.00;2252.80;;;;;;5049318;28;20067;-66
2023/11/09 05:52:45;;;;;;;36.72;20.13;;;128.00;2252.80;;;;;;5048791;28;20037;-63
2023/11/09 05:55:11;;;;;;;34.28;19.80;;;128.10;2252.80;;;;;;5041469;28;20021;-63
2023/11/09 05:57:37;;;;;;;20.48;14.45;;;128.20;2252.80;;;;;;5048474;28;20487;-63
2023/11/09 06:00:05;;;;;;;17.90;11.43;;;128.20;2252.80;;;;;;5048737;28;20108;-63
2023/11/09 06:02:31;;;;;;;13.25;8.30;;;128.20;2252.80;;;;;;5039461;28;20030;-63
2023/11/09 06:04:57;;;;;;;30.00;19.75;;;128.20;2252.80;;;;;;5044080;28;20082;-63
2023/11/09 06:07:23;;;;;;;11.93;9.57;;;128.30;2252.80;;;;;;5033796;28;20021;-62
2023/11/09 06:09:48;;;;;;;8.13;5.70;;;128.30;2252.80;;;;;;5035839;28;20055;-67
2023/11/09 06:12:15;;;;;;;7.20;5.10;;;128.40;2252.80;;;;;;5047767;28;20063;-67
2023/11/09 06:14:41;;;;;;;10.45;7.20;;;128.40;2252.80;;;;;;5048903;28;20025;-63
2023/11/09 06:17:07;;;;;;;9.23;6.50;;;128.40;2252.80;;;;;;5048425;28;20033;-64
2023/11/09 06:19:33;;;;;;;11.88;8.40;;;128.50;2252.80;;;;;;5048827;28;20017;-63
2023/11/09 06:21:59;;;;;;;9.52;5.50;;;128.50;2252.80;;;;;;5048079;28;20133;-64
2023/11/09 06:24:24;;;;;;;8.00;5.53;;;128.50;2252.80;;;;;;5048268;28;20021;-62
2023/11/09 06:26:53;;;;;;;8.77;5.25;;;128.60;2252.80;;;;;;5045966;28;20451;-62
2023/11/09 06:29:19;;;;;;;8.52;5.28;;;128.70;2252.80;;;;;;5047648;28;20340;-63
2023/11/09 06:31:47;;;;;;;8.20;5.18;;;128.60;2252.80;;;;;;5037583;28;20032;-63
2023/11/09 06:34:16;;;;;;;10.65;6.82;;;128.70;2252.80;;;;;;5042096;28;20036;-61
2023/11/09 06:36:45;;;;;;;10.02;5.95;;;128.70;2252.80;;;;;;5035963;28;20053;-65
2023/11/09 06:39:16;;;;;;;10.00;6.80;;;128.80;2252.80;;;;;;5041727;28;20430;-65
2023/11/09 06:41:47;;;;;;;10.80;6.25;;;128.90;2252.80;;;;;;5029482;28;20109;-63
2023/11/09 06:44:13;;;;;;;9.23;6.35;;;128.90;2252.80;;;;;;5041327;28;20083;-62
2023/11/09 06:46:39;;;;;;;13.77;10.30;;;153.60;2252.80;;;;;;5036555;28;20025;-66
2023/11/09 06:49:08;;;;;;;18.33;11.57;;;153.60;2252.80;;;;;;5044232;28;20029;-67
2023/11/09 06:51:35;;;;;;;9.20;6.35;;;153.70;2252.80;;;;;;5052515;28;20478;-63
2023/11/09 06:54:02;;;;;;;19.63;16.33;;;153.80;2252.80;;;;;;5048737;28;20037;-63
2023/11/09 06:56:29;;;;;;;14.10;9.43;;;153.80;2252.80;;;;;;5049668;28;20032;-63
2023/11/09 06:58:54;;;;;;;17.83;10.98;;;153.90;2252.80;;;;;;5047120;28;20041;-63
2023/11/09 07:01:20;;;;;;;11.70;9.80;;;154.00;2252.80;;;;;;5051845;28;20036;-64
2023/11/09 07:03:46;;;;;;;10.95;9.15;;;154.10;2252.80;;;;;;5047700;28;20033;-66
2023/11/09 07:06:12;;;;;;;16.17;11.93;;;154.10;2252.80;;;;;;5046091;28;20055;-62
2023/11/09 07:08:38;;;;;;;16.35;10.13;;;154.10;2252.80;;;;;;5044191;28;20037;-62
2023/11/09 07:11:07;;;;;;;17.63;11.82;;;154.20;2252.80;;;;;;5044171;28;20059;-62
2023/11/09 07:13:33;;;;;;;12.60;8.85;;;154.30;2252.80;;;;;;5051602;28;20426;-63
2023/11/09 07:15:59;;;;;;;17.90;12.05;;;154.30;2252.80;;;;;;5038750;28;20079;-66
2023/11/09 07:18:24;;;;;;;27.02;16.63;;;154.40;2252.80;;;;;;5043689;28;20036;-64
2023/11/09 07:20:50;;;;;;;27.58;17.33;;;154.40;2252.80;;;;;;5051181;28;20068;-65
2023/11/09 07:23:17;;;;;;;32.72;20.05;;;154.40;2252.80;;;;;;5045916;28;20090;-63
2023/11/09 07:25:43;;;;;;;25.73;18.70;;;154.40;2252.80;;;;;;5019450;28;20030;-63
2023/11/09 07:28:09;;;;;;;30.98;21.67;;;179.30;2252.80;;;;;;5045158;28;20493;-67
2023/11/09 07:30:35;;;;;;;22.38;13.10;;;204.80;2252.80;;;;;;5044162;28;20057;-68
2023/11/09 07:33:02;;;;;;;20.10;11.45;;;205.00;2252.80;;;;;;5047741;28;20029;-64
2023/11/09 07:35:29;;;;;;;21.08;13.55;;;230.80;2252.80;;;;;;5032971;28;20022;-65
2023/11/09 07:37:58;;;;;;;63.75;43.40;;;256.30;2252.80;;;;;;5040200;28;20048;-65
2023/11/09 07:40:27;;;;;;;31.15;25.98;;;282.20;2278.40;;;;;;5041865;28;20024;-63
2023/11/09 07:42:54;;;;;;;36.42;26.27;;;358.90;2329.60;;;;;;5044592;28;20021;-65
2023/11/09 07:45:20;;;;;;;37.35;28.42;;;410.00;2278.40;;;;;;5037979;28;20021;-68
2023/11/09 07:47:47;;;;;;;35.58;31.23;;;435.90;2099.20;;;;;;5039766;28;20147;-67
2023/11/09 07:50:14;;;;;;;29.20;24.13;;;486.70;1996.80;;;;;;5033982;28;20025;-66
2023/11/09 07:52:40;;;;;;;28.58;25.27;;;512.40;1868.80;;;;;;5048891;28;20501;-64
2023/11/09 07:55:07;;;;;;;49.63;42.55;;;538.00;1792.00;;;;;;5038056;28;20033;-73
2023/11/09 07:57:37;;;;;;;48.15;40.30;;;538.20;1740.80;;;;;;5042966;28;20051;-72
2023/11/09 08:00:05;;;;;;;55.85;45.63;;;538.40;1715.20;;;;;;5042216;28;20029;-65
2023/11/09 08:02:31;;;;;;;49.47;41.58;;;563.20;1715.20;;;;;;5035571;28;20040;-72
2023/11/09 08:04:57;;;;;;;51.33;42.58;;;564.10;1664.00;;;;;;5046180;28;20017;-67
2023/11/09 08:07:23;;;;;;;43.85;39.15;;;589.70;1612.80;;;;;;5041658;28;20486;-66
2023/11/09 08:09:49;;;;;;;58.65;48.85;;;614.80;1561.60;;;;;;5045692;28;20017;-68
2023/11/09 08:12:15;;;;;;;71.45;57.95;;;614.60;1561.60;;;;;;5044731;28;20032;-66
2023/11/09 08:14:42;;;;;;;65.35;54.88;;;615.30;1561.60;;;;;;5048829;28;20066;-63
2023/11/09 08:17:09;;;;;;;68.10;56.90;;;615.20;1510.40;;;;;;5047470;28;20120;-72
2023/11/09 08:19:35;;;;;;;61.83;50.95;;;640.20;1484.80;;;;;;5040065;28;20498;-69
2023/11/09 08:22:02;;;;;;;60.35;48.17;;;615.30;1510.40;;;;;;5044267;28;20049;-69
2023/11/09 08:24:28;;;;;;;54.95;48.08;;;640.50;1484.80;;;;;;5047487;28;20068;-66
2023/11/09 08:26:53;;;;;;;52.45;46.10;;;665.70;1459.20;;;;;;5036669;28;20060;-69
2023/11/09 08:29:19;;;;;;;41.83;36.55;;;666.10;1433.60;;;;;;5049840;28;20387;-67
2023/11/09 08:31:45;;;;;;;37.80;32.70;;;665.60;1433.60;;;;;;5046394;28;20043;-67
2023/11/09 08:34:11;;;;;;;39.38;34.55;;;665.70;1433.60;;;;;;5029817;28;20048;-65
2023/11/09 08:36:37;;;;;;;44.33;35.85;;;691.30;1408.00;;;;;;5043626;28;20483;-69
2023/11/09 08:39:03;;;;;;;42.55;38.40;;;691.90;1356.80;;;;;;5030469;28;20057;-66
2023/11/09 08:41:30;;;;;;;38.28;34.17;;;692.00;1356.80;;;;;;5030980;28;20049;-66
2023/11/09 08:43:55;;;;;;;35.05;31.23;;;717.00;1356.80;;;;;;5040438;28;20036;-67
2023/11/09 08:46:23;;;;;;;42.38;35.80;;;717.30;1331.20;;;;;;5032646;28;20017;-67
2023/11/09 08:48:49;;;;;;;38.58;33.85;;;717.20;1331.20;;;;;;5030742;28;20398;-67
2023/11/09 08:51:15;;;;;;;50.30;42.13;;;717.30;1331.20;;;;;;5030427;28;20143;-67
2023/11/09 08:53:42;;;;;;;54.00;43.40;;;717.40;1331.20;;;;;;5029873;28;20074;-67
2023/11/09 08:56:10;;;;;;;40.30;35.97;;;717.50;1331.20;;;;;;5047497;28;20021;-68
2023/11/09 08:58:37;;;;;;;31.50;28.23;;;691.80;1331.20;;;;;;5049758;28;20126;-65
2023/11/09 09:01:16;;;;;;;38.60;32.58;;;666.20;1382.40;;;;;;5049165;28;20036;-66
2023/11/09 09:03:49;;;;;;;43.97;36.55;;;691.30;1382.40;;;;;;5049286;28;20029;-66
2023/11/09 09:06:16;;;;;;;;;;;665.80;1433.60;;;;;;5025726;28;20017;-65
2023/11/09 09:08:42;;;;;;;46.80;42.10;;;640.80;1433.60;;;;;;5048579;28;19970;-66
2023/11/09 09:11:11;;;;;;;68.80;46.00;;;640.60;1433.60;;;;;;5048254;28;20517;-66
2023/11/09 09:13:36;;;;;;;35.17;31.05;;;640.50;1459.20;;;;;;5048411;28;20082;-69
2023/11/09 09:16:03;;;;;;;44.60;37.90;;;614.60;1510.40;;;;;;5049289;28;20021;-65
2023/11/09 09:18:30;;;;;;;45.28;39.85;;;563.70;1638.40;;;;;;5048864;28;20057;-65
2023/11/09 09:20:56;;;;;;;46.20;35.20;;;537.80;1689.60;;;;;;5049016;28;20053;-65
2023/11/09 09:23:22;;;;;;;74.30;54.25;;;512.00;1740.80;;;;;;5049000;28;20083;-64
2023/11/09 09:25:47;;;;;;;71.28;51.83;;;486.40;1817.60;;;;;;5048867;28;20025;-67
2023/11/09 09:28:14;;;;;;;58.90;41.00;;;461.00;1894.40;;;;;;5048947;28;20056;-65
2023/11/09 09:30:39;;;;;;;44.03;30.95;;;435.30;1971.20;;;;;;5048802;28;20032;-64
2023/11/09 09:33:07;;;;;;;39.78;28.80;;;435.50;1971.20;;;;;;5049075;28;20379;-65
2023/11/09 09:35:33;;;;;;;38.25;27.35;;;410.40;2022.40;;;;;;5048386;28;20440;-67
2023/11/09 09:38:02;;;;;;;45.75;32.22;;;409.90;2073.60;;;;;;5048515;28;20033;-67
2023/11/09 09:40:29;;;;;;;38.65;30.27;;;409.60;2099.20;;;;;;5043668;28;20034;-68
2023/11/09 09:42:56;;;;;;;38.10;29.27;;;409.80;2099.20;;;;;;5048776;28;20029;-65
2023/11/09 09:45:26;;;;;;;52.97;38.80;;;410.30;2099.20;;;;;;5040851;28;20029;-68
2023/11/09 09:47:54;;;;;;;35.80;25.48;;;410.30;2073.60;;;;;;5045923;28;20029;-69
2023/11/09 09:50:23;;;;;;;32.33;25.05;;;409.90;2124.80;;;;;;5048771;28;20029;-70
2023/11/09 09:52:56;;;;;;;34.58;30.60;;;435.50;2048.00;;;;;;5048798;28;20029;-69
2023/11/09 09:55:24;;;;;;;31.97;24.13;;;435.70;1996.80;;;;;;5048820;28;20079;-68
2023/11/09 09:57:51;;;;;;;29.38;24.08;;;435.50;2048.00;;;;;;5048445;28;20099;-69
2023/11/09 10:00:23;;;;;;;31.27;23.33;;;435.60;2022.40;;;;;;5048726;28;20025;-69
2023/11/09 10:02:56;;;;;;;35.80;27.30;;;461.00;2022.40;;;;;;5023286;28;20382;-68
2023/11/09 10:05:24;;;;;;;27.75;22.20;;;436.00;2022.40;;;;;;5048286;28;20092;-68
2023/11/09 10:08:10;;;;;;;27.40;24.42;;;435.90;2048.00;;;;;;5048705;28;20387;-68
2023/11/09 10:10:45;;;;;;;27.70;21.50;;;461.10;2048.00;;;;;;5035313;28;20100;-67
2023/11/09 10:13:14;;;;;;;22.00;17.15;;;436.10;2048.00;;;;;;5048557;28;20489;-71
2023/11/09 10:15:44;;;;;;;27.13;19.98;;;435.90;2048.00;;;;;;5048592;28;20067;-69
2023/11/09 10:18:12;;;;;;;18.35;15.38;;;435.20;2124.80;;;;;;5048732;28;20037;-67
2023/11/09 10:20:40;;;;;;;21.35;16.15;;;410.10;2176.00;;;;;;5047966;28;20116;-68
2023/11/09 10:23:11;;;;;;;20.25;16.60;;;409.90;2201.60;;;;;;5049021;28;20033;-67
2023/11/09 10:25:37;;;;;;;22.83;17.13;;;384.90;2227.20;;;;;;5050693;28;20454;-70
2023/11/09 10:28:07;;;;;;;20.58;17.52;;;384.80;2252.80;;;;;;5052463;28;20082;-67
2023/11/09 10:30:46;;;;;;;20.95;15.60;;;384.50;2278.40;;;;;;5052281;28;20059;-68
2023/11/09 10:33:14;;;;;;;20.88;15.35;;;384.30;2304.00;;;;;;5053068;28;20061;-70
2023/11/09 10:35:42;;;;;;;19.40;14.45;;;384.50;2329.60;;;;;;5052364;28;20656;-68
2023/11/09 10:38:09;;;;;;;23.00;16.10;;;384.10;2329.60;;;;;;5052169;28;20490;-68
2023/11/09 10:40:41;;;;;;;23.23;16.45;;;384.00;2329.60;;;;;;5052483;28;20025;-67
2023/11/09 10:43:14;;;;;;;24.25;16.80;;;384.10;2329.60;;;;;;5052187;28;20028;-68
2023/11/09 10:45:46;;;;;;;22.25;13.95;;;384.00;2329.60;;;;;;5052901;28;20017;-68
2023/11/09 10:48:22;;;;;;;27.23;15.25;;;384.10;2329.60;;;;;;5052305;28;20025;-69
2023/11/09 10:50:49;;;;;;;27.35;18.50;;;384.00;2329.60;;;;;;5039889;28;20068;-69
2023/11/09 10:53:15;;;;;;;23.88;15.35;;;384.10;2329.60;;;;;;5051160;28;20044;-68
2023/11/09 10:55:59;;;;;;;23.38;14.02;;;384.10;2329.60;;;;;;5051808;28;20387;-67
2023/11/09 10:58:25;;;;;;;32.90;21.52;;;384.30;2329.60;;;;;;5037277;28;20033;-68
2023/11/09 11:00:59;;;;;;;36.67;23.05;;;384.00;2329.60;;;;;;5044644;28;20025;-68
2023/11/09 11:03:25;;;;;;;;;;;384.30;2329.60;;;;;;5026785;28;20060;-67
2023/11/09 11:06:04;;;;;;;47.13;28.38;;;384.30;2329.60;;;;;;5042264;28;19960;-69
2023/11/09 11:08:38;;;;;;;48.45;29.40;;;384.30;2329.60;;;;;;5037620;28;20435;-67
2023/11/09 11:11:05;;;;;;;30.33;17.75;;;384.40;2329.60;;;;;;5049581;28;20088;-68
2023/11/09 11:13:35;;;;;;;21.75;17.77;;;384.60;2329.60;;;;;;5049746;28;20352;-69
2023/11/09 11:16:28;;;;;;;25.77;15.73;;;384.70;2329.60;;;;;;5033319;28;20029;-70
2023/11/09 11:19:17;;;;;;;27.35;18.00;;;384.80;2329.60;;;;;;5034044;28;20143;-67
2023/11/09 11:22:08;;;;;;;36.22;22.67;;;384.90;2329.60;;;;;;5035489;28;20129;-65
2023/11/09 11:24:34;;;;;;;52.30;28.05;;;384.80;2329.60;;;;;;5026258;28;20029;-66
2023/11/09 11:27:30;;;;;;;30.10;18.83;;;409.60;2355.20;;;;;;5036084;28;20026;-67
2023/11/09 11:29:56;;;;;;;38.63;22.63;;;409.70;2355.20;;;;;;5036259;28;20125;-67
2023/11/09 11:32:33;;;;;;;30.33;18.60;;;409.70;2355.20;;;;;;5034634;28;20061;-67
2023/11/09 11:35:00;;;;;;;17.45;13.02;;;409.80;2355.20;;;;;;5037666;28;20379;-67
2023/11/09 11:37:31;;;;;;;18.33;13.90;;;409.70;2355.20;;;;;;5034371;28;20037;-66
2023/11/09 11:40:05;;;;;;;25.27;13.80;;;409.90;2355.20;;;;;;5041985;28;20379;-67
2023/11/09 11:42:34;;;;;;;14.02;11.73;;;410.00;2355.20;;;;;;5050113;28;20115;-66
2023/11/09 11:45:00;;;;;;;16.63;11.38;;;409.90;2355.20;;;;;;5031617;28;20028;-67
2023/11/09 11:47:30;;;;;;;16.95;12.00;;;409.80;2355.20;;;;;;5033054;28;20022;-66
2023/11/09 11:50:10;;;;;;;34.42;24.33;;;410.00;2355.20;;;;;;5032211;28;20178;-67
2023/11/09 11:52:35;;;;;;;49.45;31.90;;;410.00;2355.20;;;;;;5033601;28;20029;-66
2023/11/09 11:55:04;;;;;;;22.20;13.07;;;410.00;2355.20;;;;;;5032409;28;20387;-69
2023/11/09 11:57:34;;;;;;;16.75;12.23;;;410.10;2355.20;;;;;;5034230;28;20045;-69
2023/11/09 12:00:10;;;;;;;25.75;17.30;;;410.20;2355.20;;;;;;5033116;28;20029;-69
2023/11/09 12:02:37;;;;;;;14.77;10.00;;;410.20;2355.20;;;;;;5034177;28;20353;-67
2023/11/09 12:05:03;;;;;;;23.00;15.98;;;410.20;2329.60;;;;;;5035559;28;20124;-67
2023/11/09 12:07:34;;;;;;;25.55;15.32;;;410.30;2278.40;;;;;;5050848;28;20023;-67
2023/11/09 12:10:00;;;;;;;20.85;14.27;;;410.20;2252.80;;;;;;5046878;28;20030;-69
2023/11/09 12:12:26;;;;;;;17.10;12.38;;;410.40;2252.80;;;;;;5048183;28;20017;-67
2023/11/09 12:14:54;;;;;;;18.25;12.00;;;410.30;2201.60;;;;;;5048437;28;20434;-68
2023/11/09 12:17:23;;;;;;;17.17;9.95;;;410.50;2252.80;;;;;;5046389;28;20075;-67